Data for 03/29/2009

Time Sea-Level Adjusted Pressure Absolute Pressure Temperature Relative Humidity Dew Point   
(mb) (inHg) (mb) (inHg) (C) (F) (%) (C) (F)
00:05 1001 29.56 830 24.51 3.2 37.7 72 -1.4 29.6
00:10 1001 29.56 830 24.51 3.2 37.7 72 -1.5 29.4
00:15 1001 29.56 830 24.51 3.4 38.1 71 -1.5 29.3
00:20 1001 29.56 830 24.51 3.5 38.3 71 -1.3 29.6
00:25 1001 29.56 830 24.51 3.5 38.3 71 -1.2 29.8
00:30 1001 29.56 830 24.51 3.4 38.1 73 -1 30.1
00:35 1000 29.53 830 24.51 3.3 38 75 -0.7 30.7
00:40 1000 29.53 830 24.51 3.1 37.5 76 -0.7 30.8
00:45 1000 29.53 829 24.48 2.9 37.2 77 -0.7 30.8
00:50 1000 29.53 829 24.48 2.7 36.9 80 -0.5 31.2
00:55 1000 29.53 829 24.48 2.5 36.5 82 -0.3 31.4
01:00 1000 29.53 829 24.48 2.3 36.2 83 -0.3 31.5
01:05 1000 29.53 829 24.48 2.2 36 84 -0.2 31.6
01:10 1000 29.53 829 24.48 2.1 35.9 85 -0.1 31.8
01:15 1000 29.53 829 24.48 2.1 35.8 86 -0 31.9
01:20 1000 29.53 829 24.48 2 35.6 87 -0 32
01:25 999 29.5 829 24.48 1.9 35.4 87 -0.1 31.9
01:30 999 29.5 829 24.48 1.9 35.3 87 -0.1 31.8
01:35 999 29.5 829 24.48 1.8 35.3 87 -0.1 31.8
01:40 999 29.5 828 24.45 1.8 35.3 86 -0.2 31.6
01:45 999 29.5 828 24.45 1.9 35.4 86 -0.1 31.7
01:50 999 29.5 828 24.45 1.9 35.5 86 -0.1 31.8
01:55 999 29.5 828 24.45 2 35.6 87 -0 32
02:00 999 29.5 828 24.45 2 35.6 87 0 32
02:05 999 29.5 828 24.45 2.1 35.7 87 0.1 32.2
02:10 999 29.5 828 24.45 2.1 35.7 87 0.2 32.3
02:15 999 29.5 828 24.45 2.1 35.8 87 0.2 32.3
02:20 999 29.5 828 24.45 2.2 35.9 87 0.2 32.3
02:25 999 29.5 828 24.45 2.2 35.9 87 0.3 32.5
02:30 999 29.5 828 24.45 2.1 35.7 88 0.3 32.5
02:35 998 29.47 828 24.45 2 35.6 88 0.2 32.4
02:40 998 29.47 828 24.45 1.8 35.3 88 0.1 32.2
02:45 998 29.47 827 24.42 1.8 35.2 88 -0 32
02:50 998 29.47 827 24.42 1.7 35 88 -0.1 31.8
02:55 998 29.47 827 24.42 1.7 35 88 -0.1 31.8
03:00 998 29.47 827 24.42 1.6 35 88 -0.1 31.8
03:05 998 29.47 827 24.42 1.6 34.9 88 -0.1 31.8
03:10 998 29.47 827 24.42 1.5 34.7 89 -0.1 31.7
03:15 997 29.44 827 24.42 1.5 34.7 88 -0.2 31.7
03:20 997 29.44 827 24.42 1.6 34.8 88 -0.2 31.6
03:25 997 29.44 826 24.39 1.6 34.9 88 -0.2 31.6
03:30 997 29.44 826 24.39 1.6 34.9 87 -0.2 31.6
03:35 997 29.44 826 24.39 1.6 35 87 -0.3 31.5
03:40 997 29.44 826 24.39 1.6 34.9 87 -0.3 31.4
03:45 997 29.44 826 24.39 1.7 35 86 -0.4 31.2
03:50 997 29.44 826 24.39 1.7 35 85 -0.5 31.1
03:55 997 29.44 826 24.39 1.6 35 85 -0.6 31
04:00 996 29.41 826 24.39 1.6 34.9 85 -0.6 30.9
04:05 996 29.41 826 24.39 1.6 34.9 85 -0.7 30.7
04:10 996 29.41 825 24.36 1.6 34.8 85 -0.7 30.7
04:15 996 29.41 825 24.36 1.5 34.7 85 -0.8 30.6
04:20 996 29.41 825 24.36 1.5 34.7 85 -0.8 30.5
04:25 996 29.41 825 24.36 1.4 34.6 85 -0.8 30.6
04:30 996 29.41 825 24.36 1.4 34.5 85 -0.9 30.4
04:35 996 29.41 825 24.36 1.4 34.5 85 -0.9 30.5
04:40 996 29.41 825 24.36 1.4 34.5 86 -0.8 30.6
04:45 996 29.41 825 24.36 1.4 34.4 87 -0.7 30.8
04:50 996 29.41 825 24.36 1.3 34.3 88 -0.6 31
04:55 996 29.41 825 24.36 1.2 34.2 88 -0.5 31.1
05:00 996 29.41 825 24.36 1.2 34.1 90 -0.4 31.4
05:05 996 29.41 825 24.36 1 33.9 91 -0.3 31.4
05:10 996 29.41 825 24.36 0.9 33.6 92 -0.3 31.5
05:15 996 29.41 825 24.36 0.8 33.4 93 -0.2 31.6
05:20 995 29.38 825 24.36 0.7 33.3 94 -0.2 31.7
05:25 995 29.38 825 24.36 0.7 33.2 95 -0.1 31.8
05:30 995 29.38 825 24.36 0.6 33 95 -0.1 31.9
05:35 995 29.38 824 24.33 0.5 32.9 96 -0.1 31.8
05:40 995 29.38 824 24.33 0.5 32.9 96 -0.1 31.8
05:45 995 29.38 824 24.33 0.4 32.8 96 -0.1 31.8
05:50 995 29.38 824 24.33 0.5 32.9 96 -0.1 31.8
05:55 995 29.38 824 24.33 0.6 33.1 95 -0.1 31.8
06:00 995 29.38 824 24.33 0.7 33.2 95 -0.1 31.8
06:05 995 29.38 824 24.33 0.7 33.3 94 -0.1 31.7
06:10 995 29.38 824 24.33 0.7 33.3 93 -0.3 31.5
06:15 995 29.38 824 24.33 0.7 33.3 92 -0.4 31.4
06:20 995 29.38 824 24.33 0.7 33.2 93 -0.4 31.3
06:25 995 29.38 824 24.33 0.7 33.2 92 -0.4 31.3
06:30 994 29.35 824 24.33 0.7 33.3 92 -0.4 31.2
06:35 994 29.35 823 24.3 0.8 33.4 92 -0.4 31.3
06:40 994 29.35 823 24.3 0.8 33.5 91 -0.5 31.1
06:45 994 29.35 824 24.33 0.9 33.6 91 -0.5 31.1
06:50 994 29.35 824 24.33 0.9 33.6 91 -0.5 31.1
06:55 994 29.35 824 24.33 0.8 33.5 90 -0.6 30.9
07:00 994 29.35 823 24.3 0.8 33.4 91 -0.6 30.9
07:05 994 29.35 823 24.3 0.7 33.3 90 -0.7 30.8
07:10 994 29.35 823 24.3 0.8 33.4 90 -0.7 30.8
07:15 994 29.35 823 24.3 0.8 33.5 89 -0.7 30.7
07:20 994 29.35 823 24.3 0.9 33.6 90 -0.6 30.9
07:25 994 29.35 823 24.3 0.9 33.6 90 -0.5 31.1
07:30 994 29.35 823 24.3 1.1 33.9 89 -0.6 31
07:35 994 29.35 823 24.3 1.2 34.2 91 -0.2 31.7
07:40 994 29.35 823 24.3 1.2 34.1 92 0.1 32.1
07:45 994 29.35 823 24.3 1 33.9 94 0.1 32.2
07:50 994 29.35 823 24.3 0.9 33.6 95 0.2 32.3
07:55 994 29.35 823 24.3 0.8 33.4 96 0.1 32.2
08:00 994 29.35 823 24.3 0.6 33.1 97 0.1 32.3
08:05 994 29.35 823 24.3 0.6 33.1 97 0.2 32.4
08:10 994 29.35 823 24.3 0.6 33.1 97 0.2 32.4
08:15 994 29.35 823 24.3 0.6 33.1 98 0.3 32.6
08:20 994 29.35 823 24.3 0.8 33.4 98 0.5 32.8
08:25 994 29.35 823 24.3 0.9 33.6 98 0.5 32.9
08:30 994 29.35 823 24.3 1 33.7 97 0.6 33.1
08:35 994 29.35 823 24.3 1 33.8 97 0.6 33.1
08:40 994 29.35 823 24.3 1 33.9 97 0.6 33.1
08:45 994 29.35 823 24.3 1 33.8 97 0.5 32.9
08:50 994 29.35 823 24.3 1 33.8 97 0.6 33.1
08:55 994 29.35 823 24.3 1.2 34.1 97 0.7 33.2
09:00 994 29.35 823 24.3 1.1 34 95 0.4 32.8
09:05 994 29.35 823 24.3 1 33.8 96 0.4 32.7
09:10 994 29.35 823 24.3 1.1 34 96 0.5 32.9
09:15 994 29.35 823 24.3 1.2 34.2 95 0.5 32.9
09:20 994 29.35 823 24.3 1.2 34.2 94 0.4 32.7
09:25 994 29.35 823 24.3 1.2 34.2 92 0 32
09:30 994 29.35 823 24.3 1.1 34 92 -0.1 31.8
09:35 994 29.35 823 24.3 0.7 33.2 94 -0.2 31.6
09:40 994 29.35 823 24.3 0.2 32.4 95 -0.4 31.2
09:45 994 29.35 823 24.3 0.1 32.2 96 -0.5 31.2
09:50 994 29.35 823 24.3 0.2 32.4 95 -0.5 31.2
09:55 994 29.35 823 24.3 0.2 32.3 95 -0.6 31
10:00 994 29.35 823 24.3 0.1 32.2 94 -0.7 30.7
10:05 994 29.35 823 24.3 0.1 32.3 94 -0.6 30.8
10:10 994 29.35 823 24.3 0.1 32.2 95 -0.6 31
10:15 994 29.35 824 24.33 -0.1 31.8 96 -0.7 30.8
10:20 994 29.35 824 24.33 -0.2 31.7 96 -0.7 30.8
10:25 995 29.38 824 24.33 -0.2 31.7 97 -0.6 30.9
10:30 995 29.38 824 24.33 -0 32 97 -0.5 31.1
10:35 994 29.35 824 24.33 0.1 32.3 96 -0.4 31.3
10:40 994 29.35 824 24.33 0.2 32.3 95 -0.5 31.1
10:45 994 29.35 824 24.33 0 32 96 -0.5 31
10:50 995 29.38 824 24.33 -0.1 31.9 96 -0.6 30.9
10:55 995 29.38 824 24.33 -0.2 31.7 97 -0.6 31
11:00 995 29.38 824 24.33 -0.1 31.9 97 -0.5 31.1
11:05 995 29.38 824 24.33 -0.1 31.9 97 -0.5 31
11:10 995 29.38 824 24.33 0 32 97 -0.4 31.2
11:15 995 29.38 824 24.33 0.2 32.3 96 -0.3 31.4
11:20 995 29.38 824 24.33 0.1 32.2 97 -0.3 31.4
11:25 995 29.38 824 24.33 0.2 32.3 97 -0.3 31.4
11:30 995 29.38 824 24.33 0.3 32.6 96 -0.2 31.6
11:35 995 29.38 824 24.33 0.3 32.6 96 -0.2 31.6
11:40 995 29.38 824 24.33 0.3 32.5 96 -0.3 31.5
11:45 995 29.38 824 24.33 0.2 32.4 96 -0.3 31.4
11:50 995 29.38 824 24.33 0.2 32.4 96 -0.3 31.4
11:55 995 29.38 824 24.33 0.2 32.3 97 -0.3 31.5
12:00 995 29.38 824 24.33 0.3 32.5 97 -0.2 31.7
12:05 995 29.38 824 24.33 0.3 32.5 96 -0.2 31.6
12:10 995 29.38 824 24.33 0.3 32.5 96 -0.3 31.5
12:15 995 29.38 824 24.33 0.2 32.4 95 -0.4 31.2
12:20 995 29.38 824 24.33 0.1 32.2 96 -0.4 31.2
12:25 995 29.38 824 24.33 0.2 32.4 95 -0.5 31.1
12:30 995 29.38 824 24.33 0.2 32.4 95 -0.6 31
12:35 995 29.38 825 24.36 0.3 32.6 94 -0.6 31
12:40 995 29.38 825 24.36 0.7 33.3 92 -0.4 31.2
12:45 996 29.41 825 24.36 1 33.8 90 -0.5 31.1
12:50 996 29.41 825 24.36 1 33.8 89 -0.6 31
12:55 996 29.41 825 24.36 1.1 34 87 -0.8 30.6
13:00 996 29.41 825 24.36 1.2 34.1 87 -0.8 30.6
13:05 996 29.41 825 24.36 0.9 33.7 88 -0.9 30.4
13:10 996 29.41 825 24.36 0.8 33.5 87 -1.1 30
13:15 996 29.41 825 24.36 0.6 33.1 87 -1.3 29.6
13:20 996 29.41 825 24.36 0.5 32.9 87 -1.4 29.6
13:25 996 29.41 826 24.39 0.4 32.7 87 -1.5 29.4
13:30 996 29.41 826 24.39 -0.2 31.7 89 -1.7 28.9
13:35 997 29.44 826 24.39 -0.7 30.7 91 -1.9 28.5
13:40 997 29.44 826 24.39 -1.1 30 93 -2.2 28.1
13:45 997 29.44 826 24.39 -1.4 29.6 94 -2.3 27.9
13:50 997 29.44 826 24.39 -1.5 29.3 94 -2.3 27.8
13:55 997 29.44 826 24.39 -1.5 29.2 94 -2.4 27.6
14:00 997 29.44 826 24.39 -1.6 29.1 93 -2.5 27.4
14:05 997 29.44 827 24.42 -1.7 29 93 -2.7 27.2
14:10 997 29.44 827 24.42 -1.9 28.6 94 -2.8 27
14:15 998 29.47 827 24.42 -2 28.4 95 -2.7 27.2
14:20 998 29.47 827 24.42 -1.8 28.7 95 -2.6 27.4
14:25 998 29.47 827 24.42 -2 28.5 94 -2.7 27.1
14:30 998 29.47 828 24.45 -2.1 28.2 94 -2.9 26.7
14:35 999 29.5 828 24.45 -2.2 28.1 94 -3 26.7
14:40 999 29.5 828 24.45 -2.3 27.8 95 -3 26.6
14:45 999 29.5 828 24.45 -2.4 27.7 95 -3 26.5
14:50 999 29.5 829 24.48 -2.3 27.9 95 -3 26.6
14:55 1000 29.53 829 24.48 -2.2 28 95 -3 26.6
15:00 1000 29.53 829 24.48 -2.3 27.9 93 -3.3 26.1
15:05 1000 29.53 829 24.48 -2.3 27.9 93 -3.3 26.1
15:10 1000 29.53 829 24.48 -2.3 27.8 93 -3.4 25.9
15:15 1000 29.53 829 24.48 -2.4 27.6 92 -3.5 25.7
15:20 1000 29.53 830 24.51 -2.3 27.8 92 -3.4 25.8
15:25 1001 29.56 830 24.51 -2.1 28.2 89 -3.6 25.5
15:30 1001 29.56 830 24.51 -2.1 28.3 91 -3.4 25.9
15:35 1001 29.56 830 24.51 -2.1 28.2 91 -3.4 26
15:40 1001 29.56 830 24.51 -2.2 28 91 -3.5 25.8
15:45 1001 29.56 830 24.51 -2.2 28 91 -3.5 25.7
15:50 1001 29.56 830 24.51 -2.2 28 92 -3.4 25.8
15:55 1001 29.56 831 24.54 -2.3 27.8 91 -3.6 25.6
16:00 1002 29.59 831 24.54 -2.4 27.7 92 -3.6 25.5
16:05 1002 29.59 831 24.54 -2.7 27.1 93 -3.7 25.4
16:10 1002 29.59 831 24.54 -2.7 27.2 93 -3.6 25.5
16:15 1002 29.59 831 24.54 -2.5 27.5 93 -3.4 25.8
16:20 1002 29.59 832 24.57 -2.7 27.2 92 -3.7 25.3
16:25 1002 29.59 832 24.57 -2.8 26.9 94 -3.7 25.4
16:30 1003 29.62 832 24.57 -2.5 27.4 93 -3.5 25.7
16:35 1003 29.62 832 24.57 -2.6 27.3 93 -3.6 25.5
16:40 1003 29.62 832 24.57 -2.7 27.2 93 -3.7 25.4
16:45 1003 29.62 832 24.57 -2.7 27.1 93 -3.7 25.3
16:50 1003 29.62 832 24.57 -2.8 27 93 -3.7 25.3
16:55 1003 29.62 832 24.57 -2.7 27.2 93 -3.6 25.4
17:00 1003 29.62 833 24.6 -2.8 27 94 -3.6 25.5
17:05 1003 29.62 833 24.6 -2.9 26.8 95 -3.5 25.6
17:10 1004 29.65 833 24.6 -2.8 27 92 -3.9 25
17:15 1004 29.65 833 24.6 -2.6 27.4 87 -4.5 23.9
17:20 1004 29.65 833 24.6 -2.7 27.1 87 -4.7 23.6
17:25 1004 29.65 833 24.6 -2.8 26.9 86 -4.9 23.2
17:30 1004 29.65 833 24.6 -3.1 26.5 86 -5.1 22.8
17:35 1004 29.65 833 24.6 -3.2 26.2 87 -5 23
17:40 1004 29.65 833 24.6 -3.4 25.9 89 -5 23
17:45 1004 29.65 833 24.6 -3.6 25.4 88 -5.4 22.3
17:50 1004 29.65 833 24.6 -3.8 25.2 88 -5.5 22.1
17:55 1004 29.65 834 24.63 -3.9 25 89 -5.4 22.3
18:00 1005 29.68 834 24.63 -3.9 25 89 -5.4 22.3
18:05 1005 29.68 834 24.63 -3.9 25 88 -5.6 22
18:10 1005 29.68 834 24.63 -3.9 25 87 -5.7 21.8
18:15 1005 29.68 834 24.63 -3.9 25 88 -5.6 21.9
18:20 1005 29.68 835 24.66 -3.9 24.9 89 -5.5 22.1
18:25 1006 29.71 835 24.66 -4 24.9 89 -5.6 21.9
18:30 1006 29.71 835 24.66 -4 24.8 88 -5.7 21.7
18:35 1006 29.71 835 24.66 -4 24.8 86 -6 21.2
18:40 1006 29.71 835 24.66 -4 24.8 87 -5.9 21.4
18:45 1006 29.71 835 24.66 -4 24.8 87 -5.9 21.3
18:50 1006 29.71 836 24.69 -4.1 24.6 86 -6 21.2
18:55 1007 29.74 836 24.69 -4.1 24.6 87 -5.9 21.3
19:00 1007 29.74 836 24.69 -4.1 24.5 88 -5.9 21.5
19:05 1007 29.74 836 24.69 -4.2 24.5 88 -5.8 21.5
19:10 1007 29.74 836 24.69 -4.3 24.2 90 -5.8 21.6
19:15 1007 29.74 836 24.69 -4.5 23.9 91 -5.8 21.6
19:20 1007 29.74 837 24.72 -4.6 23.8 92 -5.7 21.8
19:25 1008 29.77 837 24.72 -4.7 23.6 93 -5.6 21.8
19:30 1008 29.77 837 24.72 -4.8 23.4 94 -5.6 22
19:35 1008 29.77 837 24.72 -4.9 23.3 96 -5.5 22.2
19:40 1008 29.77 837 24.72 -4.8 23.3 94 -5.6 21.8
19:45 1008 29.77 838 24.75 -4.5 23.9 92 -5.7 21.7
19:50 1009 29.8 838 24.75 -4.4 24 91 -5.6 21.9
19:55 1009 29.8 838 24.75 -4.5 23.9 92 -5.7 21.8
20:00 1009 29.8 838 24.75 -4.8 23.3 94 -5.6 21.9
20:05 1009 29.8 838 24.75 -5 23 94 -5.8 21.6
20:10 1009 29.8 839 24.78 -5 22.9 94 -5.8 21.5
20:15 1009 29.8 839 24.78 -5 23 94 -5.8 21.5
20:20 1010 29.83 839 24.78 -5 23 95 -5.7 21.7
20:25 1010 29.83 839 24.78 -5 22.9 95 -5.7 21.7
20:30 1010 29.83 839 24.78 -5.1 22.9 95 -5.7 21.7
20:35 1010 29.83 839 24.78 -5.1 22.8 95 -5.8 21.5
20:40 1010 29.83 839 24.78 -5.2 22.7 95 -5.9 21.4
20:45 1010 29.83 839 24.78 -5.2 22.6 95 -5.9 21.3
20:50 1010 29.83 840 24.81 -5.2 22.6 95 -5.9 21.4
20:55 1010 29.83 840 24.81 -5.2 22.6 95 -5.9 21.4
21:00 1011 29.85 840 24.81 -5.3 22.5 95 -5.9 21.4
21:05 1011 29.85 840 24.81 -5.2 22.6 96 -5.8 21.5
21:10 1011 29.85 840 24.81 -5.2 22.7 96 -5.7 21.7
21:15 1011 29.85 840 24.81 -5.1 22.9 96 -5.6 21.9
21:20 1011 29.85 840 24.81 -5 23.1 96 -5.6 22
21:25 1011 29.85 841 24.83 -5 22.9 95 -5.7 21.7
21:30 1011 29.85 841 24.83 -5.2 22.6 96 -5.8 21.6
21:35 1011 29.85 841 24.83 -5.2 22.6 96 -5.8 21.6
21:40 1011 29.85 841 24.83 -5.2 22.7 96 -5.7 21.7
21:45 1012 29.88 841 24.83 -5.1 22.8 96 -5.7 21.8
21:50 1012 29.88 841 24.83 -5 23 96 -5.6 21.9
21:55 1012 29.88 841 24.83 -5 22.9 95 -5.7 21.7
22:00 1012 29.88 841 24.83 -5.1 22.8 95 -5.7 21.7
22:05 1012 29.88 841 24.83 -5 22.9 95 -5.7 21.7
22:10 1012 29.88 841 24.83 -5.1 22.8 95 -5.8 21.6
22:15 1012 29.88 841 24.83 -5.1 22.8 93 -6.1 21
22:20 1012 29.88 841 24.83 -5.1 22.8 91 -6.4 20.4
22:25 1012 29.88 841 24.83 -5.1 22.9 87 -6.9 19.7
22:30 1012 29.88 842 24.86 -5 23 88 -6.7 19.9
22:35 1012 29.88 842 24.86 -5 23 84 -7.3 18.9
22:40 1012 29.88 842 24.86 -5 23 82 -7.6 18.4
22:45 1012 29.88 842 24.86 -5 22.9 83 -7.4 18.6
22:50 1012 29.88 842 24.86 -5.1 22.9 83 -7.5 18.5
22:55 1013 29.91 842 24.86 -5.2 22.7 83 -7.6 18.4
23:00 1013 29.91 842 24.86 -5.2 22.6 86 -7.3 18.9
23:05 1013 29.91 842 24.86 -5.3 22.5 84 -7.5 18.5
23:10 1013 29.91 842 24.86 -5.2 22.6 84 -7.5 18.6
23:15 1013 29.91 842 24.86 -5.2 22.6 85 -7.4 18.7
23:20 1013 29.91 842 24.86 -5.3 22.4 85 -7.5 18.5
23:25 1013 29.91 842 24.86 -5.3 22.4 83 -7.8 18
23:30 1013 29.91 842 24.86 -5.3 22.5 82 -7.9 17.7
23:35 1013 29.91 842 24.86 -5.3 22.5 81 -8 17.6
23:40 1013 29.91 842 24.86 -5.2 22.6 80 -8.2 17.2
23:45 1013 29.91 842 24.86 -5.2 22.6 79 -8.3 17.1
23:50 1013 29.91 842 24.86 -5.2 22.7 76 -8.7 16.3
23:55 1013 29.91 842 24.86 -5.2 22.7 74 -9.2 15.5
24:00 1013 29.91 843 24.89 -5.1 22.8 75 -8.8 16.1